Time;durP1;ratioP1;P1;durP2;ratioP2;P2;SDS_P1;SDS_P2;PMS_P1;PMS_P2;Temp;Humidity;BMP_temperature;BMP_pressure;BME280_temperature;BME280_humidity;BME280_pressure;Samples;Min_cycle;Max_cycle;Signal;HPM_P1;HPM_P2
2021/12/19 00:00:34;;;;;;;24.85;10.55;;;6.00;81.10;;;;;;5104147;28;20281;-84
2021/12/19 00:03:08;;;;;;;14.10;6.53;;;6.00;81.20;;;;;;5094238;28;20067;-84
2021/12/19 00:08:28;;;;;;;7.73;3.90;;;6.10;81.20;;;;;;5094117;28;20043;-84
2021/12/19 00:10:55;;;;;;;7.05;4.95;;;6.30;80.70;;;;;;5093377;28;20023;-84
2021/12/19 00:13:24;;;;;;;5.27;3.20;;;6.30;80.40;;;;;;5092747;28;20021;-84
2021/12/19 00:15:50;;;;;;;14.33;6.33;;;6.30;80.10;;;;;;5092948;28;20024;-84
2021/12/19 00:18:15;;;;;;;;;;;6.30;80.10;;;;;;5093375;28;20073;-83
2021/12/19 00:20:41;;;;;;;8.37;4.77;;;6.30;80.10;;;;;;5092988;28;19904;-84
2021/12/19 00:23:07;;;;;;;;;;;6.40;79.50;;;;;;5096683;28;20422;-84
2021/12/19 00:25:33;;;;;;;9.10;5.10;;;6.40;79.40;;;;;;5113288;28;19916;-84
2021/12/19 00:27:58;;;;;;;;;;;6.40;79.30;;;;;;5113083;28;20027;-83
2021/12/19 00:30:24;;;;;;;10.60;3.97;;;6.50;79.20;;;;;;5113127;28;19986;-85
2021/12/19 00:32:50;;;;;;;;;;;6.40;78.90;;;;;;5117982;28;20055;-83
2021/12/19 00:35:15;;;;;;;6.87;3.77;;;6.50;78.90;;;;;;5116862;28;20354;-83
2021/12/19 00:37:41;;;;;;;;;;;6.40;78.60;;;;;;5109727;28;20024;-84
2021/12/19 00:40:07;;;;;;;11.30;5.77;;;6.50;78.70;;;;;;5115818;28;20379;-84
2021/12/19 00:42:34;;;;;;;;;;;6.50;78.60;;;;;;5117395;28;20020;-83
2021/12/19 00:45:05;;;;;;;8.02;4.38;;;6.50;78.70;;;;;;5116930;28;19938;-84
2021/12/19 00:47:31;;;;;;;7.67;5.40;;;6.50;78.50;;;;;;5111513;28;20165;-83
2021/12/19 00:49:57;;;;;;;;;;;6.50;78.60;;;;;;5096885;28;20043;-83
2021/12/19 00:52:23;;;;;;;9.33;4.80;;;6.50;78.60;;;;;;5096154;28;19954;-83
2021/12/19 00:54:48;;;;;;;;;;;6.60;78.30;;;;;;5096775;28;20031;-83
2021/12/19 00:57:14;;;;;;;8.70;5.20;;;6.50;78.40;;;;;;5096144;28;19908;-84
2021/12/19 00:59:39;;;;;;;;;;;6.60;78.20;;;;;;5096602;28;20024;-84
2021/12/19 01:02:05;;;;;;;10.57;5.87;;;6.60;78.30;;;;;;5095891;28;19954;-84
2021/12/19 01:04:30;;;;;;;;;;;6.60;78.10;;;;;;5096621;28;20027;-83
2021/12/19 01:07:00;;;;;;;8.00;4.33;;;6.60;78.10;;;;;;5096188;28;19904;-83
2021/12/19 01:09:26;;;;;;;10.37;6.07;;;6.60;77.90;;;;;;5095847;28;20028;-84
2021/12/19 01:11:51;;;;;;;;;;;6.60;77.90;;;;;;5096415;28;20028;-84
2021/12/19 01:14:18;;;;;;;8.33;3.97;;;6.60;77.90;;;;;;5095867;28;19911;-84
2021/12/19 01:16:44;;;;;;;9.20;4.33;;;6.60;77.60;;;;;;5095986;28;20073;-83
2021/12/19 01:19:11;;;;;;;4.73;2.80;;;6.60;77.40;;;;;;5096127;28;20032;-84
2021/12/19 01:21:37;;;;;;;16.07;7.20;;;6.60;77.50;;;;;;5098124;28;20028;-84
2021/12/19 01:24:03;;;;;;;;;;;6.60;77.50;;;;;;5096782;28;20074;-83
2021/12/19 01:26:29;;;;;;;9.33;5.60;;;6.70;77.40;;;;;;5095964;28;19908;-83
2021/12/19 01:28:54;;;;;;;;;;;6.70;77.00;;;;;;5111393;28;20384;-84
2021/12/19 01:31:20;;;;;;;8.30;4.47;;;6.70;77.10;;;;;;5115808;28;19908;-84
2021/12/19 01:33:46;;;;;;;;;;;6.70;76.90;;;;;;5116325;28;20047;-84
2021/12/19 01:36:12;;;;;;;4.83;2.93;;;6.70;77.00;;;;;;5116269;28;19907;-85
2021/12/19 01:38:38;;;;;;;7.73;4.37;;;6.70;77.00;;;;;;5104478;28;20028;-84
2021/12/19 01:41:03;;;;;;;;;;;6.70;77.10;;;;;;5102787;28;20027;-85
2021/12/19 01:43:31;;;;;;;8.27;4.60;;;6.70;77.20;;;;;;5116747;28;19904;-83
2021/12/19 01:45:56;;;;;;;10.83;4.73;;;6.80;77.10;;;;;;5115766;28;20039;-84
2021/12/19 01:48:23;;;;;;;;;;;6.70;77.10;;;;;;5116322;28;20389;-84
2021/12/19 01:50:48;;;;;;;11.60;5.97;;;6.80;77.20;;;;;;5115589;28;19911;-83
2021/12/19 01:53:14;;;;;;;;;;;6.80;77.10;;;;;;5115570;28;20028;-83
2021/12/19 01:55:43;;;;;;;8.80;3.73;;;6.80;77.10;;;;;;5116184;28;19955;-83
2021/12/19 01:58:09;;;;;;;12.83;7.60;;;6.80;76.90;;;;;;5109106;28;20451;-84
2021/12/19 02:00:50;;;;;;;13.67;7.77;;;6.70;77.00;;;;;;5104812;28;20034;-84
2021/12/19 02:03:16;;;;;;;11.97;6.93;;;6.60;77.30;;;;;;5108281;28;20039;-84
2021/12/19 02:05:41;;;;;;;;;;;6.70;77.40;;;;;;5094722;28;20111;-83
2021/12/19 02:08:10;;;;;;;18.10;8.77;;;6.70;77.60;;;;;;5094865;28;19977;-84
2021/12/19 02:10:36;;;;;;;15.43;5.93;;;6.70;77.30;;;;;;5094347;28;20149;-85
2021/12/19 02:13:04;;;;;;;18.73;10.13;;;6.60;77.50;;;;;;5094628;28;20454;-85
2021/12/19 02:15:31;;;;;;;12.80;7.23;;;6.70;77.60;;;;;;5094237;28;20381;-83
2021/12/19 02:18:00;;;;;;;14.00;7.07;;;6.60;77.70;;;;;;5095289;28;20495;-83
2021/12/19 02:20:32;;;;;;;14.70;7.67;;;6.60;77.70;;;;;;5094034;28;20047;-84
2021/12/19 02:22:57;;;;;;;16.50;8.43;;;6.60;77.70;;;;;;5094317;28;20024;-83
2021/12/19 02:25:23;;;;;;;;;;;6.60;77.90;;;;;;5094884;28;20043;-84
2021/12/19 02:27:49;;;;;;;18.87;10.53;;;6.60;78.10;;;;;;5094602;28;20015;-83
2021/12/19 02:30:14;;;;;;;;;;;6.60;78.00;;;;;;5095232;28;20091;-83
2021/12/19 02:32:41;;;;;;;19.37;9.27;;;6.60;78.30;;;;;;5094795;28;19904;-82
2021/12/19 02:35:15;;;;;;;13.77;8.20;;;6.60;78.30;;;;;;5094214;28;20058;-84
2021/12/19 02:48:35;;;;;;;5.67;3.43;;;6.40;79.20;;;;;;5101677;28;20507;-83
2021/12/19 02:51:02;;;;;;;;;;;6.40;79.30;;;;;;5094490;28;20020;-83
2021/12/19 02:53:44;;;;;;;8.73;4.63;;;6.40;79.50;;;;;;5093917;28;20299;-83
2021/12/19 02:56:12;;;;;;;8.60;3.57;;;6.40;79.40;;;;;;5104346;28;20028;-83
2021/12/19 02:58:41;;;;;;;10.77;6.07;;;6.30;79.50;;;;;;5114485;28;20118;-83
2021/12/19 03:01:11;;;;;;;14.07;7.20;;;6.40;79.60;;;;;;5114282;28;20055;-82
2021/12/19 03:03:36;;;;;;;9.70;4.63;;;6.30;79.60;;;;;;5114113;28;20418;-84
2021/12/19 03:06:02;;;;;;;;;;;6.40;79.70;;;;;;5114542;28;20031;-84
2021/12/19 03:08:29;;;;;;;5.37;3.00;;;6.40;79.70;;;;;;5114384;28;19903;-83
2021/12/19 03:19:07;;;;;;;9.80;5.77;;;6.40;79.60;;;;;;5115976;28;20034;-84
2021/12/19 03:21:33;;;;;;;;;;;6.40;79.60;;;;;;5115373;28;20458;-83
2021/12/19 03:23:58;;;;;;;13.70;7.37;;;6.40;79.80;;;;;;5114754;28;20340;-84
2021/12/19 03:26:24;;;;;;;;;;;6.30;79.60;;;;;;5114830;28;20016;-85
2021/12/19 03:28:49;;;;;;;11.17;6.13;;;6.30;79.80;;;;;;5108756;28;19990;-85
2021/12/19 03:31:15;;;;;;;;;;;6.30;79.60;;;;;;5093862;28;20032;-84
2021/12/19 03:33:41;;;;;;;9.33;5.40;;;6.30;79.80;;;;;;5093700;28;19947;-84
2021/12/19 03:36:06;;;;;;;;;;;6.30;79.70;;;;;;5094503;28;20388;-84
2021/12/19 03:38:37;;;;;;;9.00;5.23;;;6.30;79.90;;;;;;5093548;28;19960;-83
2021/12/19 03:41:20;;;;;;;15.73;8.03;;;6.30;79.70;;;;;;5094888;28;20045;-84
2021/12/19 03:43:46;;;;;;;16.20;8.67;;;6.20;79.90;;;;;;5093820;28;20499;-84
2021/12/19 03:46:11;;;;;;;;;;;6.20;80.00;;;;;;5093460;28;20040;-85
2021/12/19 03:48:37;;;;;;;9.13;4.27;;;6.20;80.20;;;;;;5093174;28;19912;-84
2021/12/19 03:51:04;;;;;;;13.43;6.35;;;6.30;79.90;;;;;;5093452;28;20357;-84
2021/12/19 03:53:29;;;;;;;7.13;4.33;;;6.30;80.10;;;;;;5093113;28;20507;-82
2021/12/19 03:55:55;;;;;;;;;;;6.20;80.10;;;;;;5098794;28;20024;-83
2021/12/19 03:58:21;;;;;;;16.63;9.20;;;6.20;80.20;;;;;;5114016;28;19904;-84
2021/12/19 04:00:47;;;;;;;;;;;6.30;80.00;;;;;;5113412;28;20016;-84
2021/12/19 04:03:19;;;;;;;12.20;5.00;;;6.30;80.20;;;;;;5114084;28;19953;-84
2021/12/19 04:05:49;;;;;;;12.90;6.80;;;6.30;79.90;;;;;;5114139;28;20797;-84
2021/12/19 04:08:16;;;;;;;13.50;5.97;;;6.20;80.10;;;;;;5118196;28;20043;-84
2021/12/19 04:10:42;;;;;;;10.30;4.80;;;6.20;80.40;;;;;;5117721;28;20016;-84
2021/12/19 04:13:07;;;;;;;;;;;6.20;80.60;;;;;;5118952;28;20023;-84
2021/12/19 04:15:34;;;;;;;10.07;5.27;;;6.20;80.60;;;;;;5117806;28;19904;-83
2021/12/19 04:18:00;;;;;;;5.83;3.60;;;6.20;80.50;;;;;;5117488;28;20024;-83
2021/12/19 04:20:25;;;;;;;;;;;6.20;80.60;;;;;;5118336;28;20030;-84
2021/12/19 04:22:52;;;;;;;9.07;4.97;;;6.20;80.70;;;;;;5117757;28;19904;-84
2021/12/19 04:25:18;;;;;;;13.47;4.93;;;6.20;80.30;;;;;;5118369;28;20027;-83
2021/12/19 04:27:44;;;;;;;16.70;8.23;;;6.20;80.60;;;;;;5116674;28;20069;-83
2021/12/19 04:30:12;;;;;;;;;;;6.10;80.80;;;;;;5117159;28;20020;-83
2021/12/19 04:32:42;;;;;;;15.38;8.02;;;6.20;80.90;;;;;;5099815;28;20010;-84
2021/12/19 04:35:10;;;;;;;15.13;7.30;;;6.20;80.70;;;;;;5098435;28;20024;-83
2021/12/19 04:38:21;;;;;;;20.43;9.33;;;6.20;80.80;;;;;;5097263;28;20032;-84
2021/12/19 04:40:45;;;;;;;13.47;6.43;;;6.20;80.80;;;;;;5097830;28;20035;-85
2021/12/19 04:44:28;;;;;;;15.57;8.30;;;6.20;80.80;;;;;;5096252;28;20035;-83
2021/12/19 04:54:52;;;;;;;;;;;6.20;80.80;;;;;;5098810;28;20028;-84
2021/12/19 05:02:12;;;;;;;7.00;4.20;;;6.20;80.80;;;;;;5118998;28;20027;-83
2021/12/19 05:15:34;;;;;;;13.40;6.30;;;6.20;81.10;;;;;;5118373;28;20522;-83
2021/12/19 05:18:05;;;;;;;10.63;6.10;;;6.20;81.10;;;;;;5116226;28;20027;-83
2021/12/19 05:20:32;;;;;;;11.00;5.27;;;6.20;81.10;;;;;;5116834;28;20069;-83
2021/12/19 05:23:07;;;;;;;17.07;9.27;;;6.20;81.20;;;;;;5118098;28;20027;-85
2021/12/19 05:25:32;;;;;;;9.97;4.33;;;6.20;81.20;;;;;;5116394;28;20026;-83
2021/12/19 05:28:00;;;;;;;;;;;6.20;81.20;;;;;;5116505;28;20496;-84
2021/12/19 05:30:26;;;;;;;14.27;6.65;;;6.30;81.30;;;;;;5092451;28;19908;-83
2021/12/19 05:32:54;;;;;;;7.80;3.87;;;6.30;80.80;;;;;;5109257;28;20039;-83
2021/12/19 05:35:31;;;;;;;18.47;9.07;;;6.20;81.20;;;;;;5076179;28;20111;-83
2021/12/19 05:46:08;;;;;;;6.53;4.03;;;6.20;81.40;;;;;;5076622;28;20071;-84
2021/12/19 05:48:34;;;;;;;;;;;6.20;81.30;;;;;;5092280;28;20017;-83
2021/12/19 05:51:00;;;;;;;12.43;7.60;;;6.20;81.40;;;;;;5075198;28;19912;-83
2021/12/19 05:53:26;;;;;;;13.57;7.90;;;6.30;81.20;;;;;;5108697;28;20024;-83
2021/12/19 05:55:52;;;;;;;;;;;6.20;81.20;;;;;;5109422;28;20440;-84
2021/12/19 05:58:17;;;;;;;8.67;4.63;;;6.20;81.20;;;;;;5074972;28;19928;-84
2021/12/19 06:00:43;;;;;;;;;;;6.30;81.20;;;;;;5092822;28;20415;-84
2021/12/19 06:03:10;;;;;;;16.90;9.17;;;6.30;81.20;;;;;;5108986;28;19944;-84
2021/12/19 06:05:35;;;;;;;9.40;5.63;;;6.30;80.90;;;;;;5109641;28;20400;-84
2021/12/19 06:08:01;;;;;;;;;;;6.30;81.20;;;;;;5123126;27;20031;-84
2021/12/19 06:10:28;;;;;;;7.83;4.57;;;6.30;81.10;;;;;;5115892;28;20389;-83
2021/12/19 06:13:00;;;;;;;12.17;6.00;;;6.30;81.00;;;;;;5115969;28;20076;-84
2021/12/19 06:15:26;;;;;;;7.67;4.53;;;6.20;80.90;;;;;;5115368;28;20031;-82
2021/12/19 06:17:52;;;;;;;;;;;6.30;80.90;;;;;;5115823;28;20368;-82
2021/12/19 06:20:18;;;;;;;17.37;10.13;;;6.30;80.90;;;;;;5098351;28;19914;-83
2021/12/19 06:22:44;;;;;;;;;;;6.30;80.40;;;;;;5114513;28;20020;-82
2021/12/19 06:25:10;;;;;;;15.10;8.23;;;6.30;80.70;;;;;;5114881;28;19907;-83
2021/12/19 06:27:35;;;;;;;;;;;6.30;80.40;;;;;;5115368;28;20020;-83
2021/12/19 06:30:02;;;;;;;13.00;7.13;;;6.30;80.60;;;;;;5109150;28;19911;-83
2021/12/19 06:32:27;;;;;;;20.20;9.07;;;6.30;80.40;;;;;;5094772;28;20041;-85
2021/12/19 06:34:53;;;;;;;;;;;6.30;80.40;;;;;;5095098;28;20119;-84
2021/12/19 06:37:18;;;;;;;24.33;10.70;;;6.40;80.30;;;;;;5094753;28;19911;-84
2021/12/19 06:39:44;;;;;;;;;;;6.40;79.80;;;;;;5095247;28;20024;-84
2021/12/19 06:42:10;;;;;;;15.30;7.03;;;6.40;79.90;;;;;;5094624;28;19904;-85
2021/12/19 06:44:35;;;;;;;;;;;6.50;79.40;;;;;;5095032;28;20056;-84
2021/12/19 06:47:02;;;;;;;18.97;10.13;;;6.40;79.40;;;;;;5094776;28;20375;-84
2021/12/19 06:49:28;;;;;;;17.23;9.27;;;6.40;79.30;;;;;;5095084;28;20024;-84
2021/12/19 06:51:54;;;;;;;;;;;6.40;79.20;;;;;;5096519;28;20030;-84
2021/12/19 06:54:20;;;;;;;15.30;7.67;;;6.40;79.30;;;;;;5101186;28;19931;-83
2021/12/19 06:56:45;;;;;;;;;;;6.40;79.10;;;;;;5115668;28;20023;-83
2021/12/19 06:59:11;;;;;;;19.23;9.93;;;6.50;79.10;;;;;;5115407;28;19913;-84
2021/12/19 07:01:37;;;;;;;15.00;8.63;;;6.50;78.70;;;;;;5098747;28;20016;-85
2021/12/19 07:04:03;;;;;;;14.00;7.73;;;6.50;78.90;;;;;;5094777;28;20444;-85
2021/12/19 07:06:28;;;;;;;;;;;6.40;79.10;;;;;;5095033;28;20070;-84
2021/12/19 07:08:54;;;;;;;13.90;6.73;;;6.50;79.00;;;;;;5094725;28;19904;-84
2021/12/19 07:11:20;;;;;;;;;;;6.60;78.50;;;;;;5096578;28;20020;-83
2021/12/19 07:13:45;;;;;;;19.07;9.63;;;6.50;78.80;;;;;;5094401;28;20318;-86
2021/12/19 07:16:11;;;;;;;19.38;9.88;;;6.50;78.50;;;;;;5093618;28;20086;-84
2021/12/19 07:18:37;;;;;;;;;;;6.50;78.40;;;;;;5109262;28;20055;-85
2021/12/19 07:21:07;;;;;;;15.67;8.30;;;6.50;78.40;;;;;;5114002;28;19956;-85
2021/12/19 07:23:33;;;;;;;9.00;5.40;;;6.60;78.10;;;;;;5115735;28;20034;-83
2021/12/19 07:25:59;;;;;;;;;;;6.50;78.10;;;;;;5095787;28;20484;-83
2021/12/19 07:28:25;;;;;;;17.77;8.27;;;6.50;78.20;;;;;;5094571;28;20380;-84
2021/12/19 07:30:50;;;;;;;;;;;6.50;78.20;;;;;;5094911;28;20031;-84
2021/12/19 07:33:18;;;;;;;11.50;6.50;;;6.50;78.40;;;;;;5093170;28;20334;-84
2021/12/19 07:35:47;;;;;;;12.33;6.83;;;6.50;78.30;;;;;;5093084;28;20073;-84
2021/12/19 07:38:18;;;;;;;17.70;9.97;;;6.50;78.50;;;;;;5093034;28;20080;-83
2021/12/19 07:40:47;;;;;;;9.37;6.30;;;6.50;78.70;;;;;;5092821;28;20043;-84
2021/12/19 07:43:13;;;;;;;18.80;10.23;;;6.40;78.80;;;;;;5092907;28;20434;-83
2021/12/19 07:45:39;;;;;;;18.23;9.13;;;6.50;78.70;;;;;;5093929;28;20388;-84
2021/12/19 07:48:05;;;;;;;;;;;6.60;78.80;;;;;;5093198;28;20020;-83
2021/12/19 07:50:31;;;;;;;17.40;9.17;;;6.50;78.90;;;;;;5093370;28;19904;-84
2021/12/19 07:52:58;;;;;;;14.97;9.30;;;6.60;78.70;;;;;;5101097;28;20066;-84
2021/12/19 07:55:24;;;;;;;24.60;12.03;;;6.50;78.90;;;;;;5092626;28;20053;-83
2021/12/19 07:57:50;;;;;;;14.47;7.90;;;6.60;79.00;;;;;;5101679;28;20024;-84
2021/12/19 08:00:16;;;;;;;;;;;6.50;79.00;;;;;;5102197;28;20085;-83
2021/12/19 08:02:45;;;;;;;13.73;7.70;;;6.50;79.10;;;;;;5108474;28;20280;-84
2021/12/19 08:05:12;;;;;;;23.13;12.57;;;6.60;78.90;;;;;;5092998;28;20112;-85
2021/12/19 08:07:42;;;;;;;18.87;8.93;;;6.50;79.00;;;;;;5100844;28;20619;-85
2021/12/19 08:12:41;;;;;;;32.13;16.73;;;6.50;79.10;;;;;;5114116;28;20024;-84
2021/12/19 08:15:08;;;;;;;21.43;10.53;;;6.50;79.10;;;;;;5104455;28;20111;-84
2021/12/19 08:17:34;;;;;;;20.87;11.60;;;6.60;79.20;;;;;;5101597;28;20370;-84
2021/12/19 08:20:02;;;;;;;25.90;13.57;;;6.60;79.30;;;;;;5100759;28;20024;-83
2021/12/19 08:22:29;;;;;;;20.27;11.47;;;6.70;79.30;;;;;;5107970;28;20034;-82
2021/12/19 08:24:57;;;;;;;23.67;12.37;;;6.60;79.40;;;;;;5099976;28;20039;-83
2021/12/19 08:27:23;;;;;;;19.27;10.30;;;6.60;79.60;;;;;;5101047;28;20051;-84
2021/12/19 08:29:48;;;;;;;;;;;6.60;79.70;;;;;;5103790;28;20396;-83
2021/12/19 08:32:14;;;;;;;23.00;12.30;;;6.70;79.70;;;;;;5111725;28;19911;-89
2021/12/19 08:34:40;;;;;;;16.13;8.40;;;6.70;79.50;;;;;;5095004;28;20024;-84
2021/12/19 08:37:05;;;;;;;;;;;6.80;79.70;;;;;;5105717;28;20032;-84
2021/12/19 08:39:33;;;;;;;14.57;6.57;;;6.80;79.50;;;;;;5110502;28;20292;-84
2021/12/19 08:41:59;;;;;;;13.63;5.93;;;6.80;79.20;;;;;;5097624;28;20085;-83
2021/12/19 08:44:24;;;;;;;;;;;6.80;79.10;;;;;;5100258;28;20040;-84
2021/12/19 08:46:50;;;;;;;15.97;6.90;;;6.80;79.20;;;;;;5093444;28;19919;-83
2021/12/19 08:49:18;;;;;;;;;;;6.90;79.10;;;;;;5101293;28;20028;-83
2021/12/19 08:51:46;;;;;;;12.23;6.50;;;6.90;79.30;;;;;;5108958;28;20295;-84
2021/12/19 08:54:11;;;;;;;12.63;6.63;;;7.00;79.10;;;;;;5103473;28;20024;-84
2021/12/19 08:56:37;;;;;;;;;;;7.00;79.20;;;;;;5107176;28;20019;-84
2021/12/19 08:59:03;;;;;;;9.57;4.73;;;7.00;79.10;;;;;;5117043;28;19915;-84
2021/12/19 09:01:31;;;;;;;;;;;7.10;78.80;;;;;;5116178;28;20042;-84
2021/12/19 09:03:56;;;;;;;10.13;5.17;;;7.10;78.90;;;;;;5104225;28;19915;-84
2021/12/19 09:06:22;;;;;;;;;;;7.10;78.70;;;;;;5111593;28;20020;-83
2021/12/19 09:08:47;;;;;;;10.00;5.20;;;7.10;78.80;;;;;;5104807;28;19911;-84
2021/12/19 09:11:13;;;;;;;;;;;7.10;78.60;;;;;;5101545;28;20015;-84
2021/12/19 09:13:38;;;;;;;12.03;6.53;;;7.10;78.90;;;;;;5115715;28;20263;-84
2021/12/19 09:16:04;;;;;;;5.97;3.22;;;7.20;78.70;;;;;;5107418;28;20057;-84
2021/12/19 09:18:31;;;;;;;8.03;3.87;;;7.10;78.80;;;;;;5107197;28;20101;-83
2021/12/19 09:20:57;;;;;;;;;;;7.20;78.70;;;;;;5115354;28;20504;-83
2021/12/19 09:23:23;;;;;;;11.93;6.10;;;7.30;78.70;;;;;;5106853;28;20392;-84
2021/12/19 09:25:49;;;;;;;8.40;4.53;;;7.30;78.40;;;;;;5106449;28;20492;-86
2021/12/19 09:28:16;;;;;;;10.17;5.10;;;7.40;78.30;;;;;;5107426;28;20135;-89
2021/12/19 09:30:42;;;;;;;11.80;5.97;;;7.40;78.30;;;;;;5115354;27;20532;-89
2021/12/19 09:33:08;;;;;;;;;;;7.40;78.30;;;;;;5118992;28;20027;-87
2021/12/19 09:35:36;;;;;;;7.67;4.73;;;7.50;78.20;;;;;;5116880;28;20012;-87
2021/12/19 09:38:04;;;;;;;10.33;6.03;;;7.50;77.90;;;;;;5107250;28;20476;-92
2021/12/19 09:40:35;;;;;;;10.90;6.50;;;7.50;78.00;;;;;;5104379;28;20481;-85
2021/12/19 09:43:04;;;;;;;11.00;4.40;;;7.50;78.00;;;;;;5105093;28;20012;-89
2021/12/19 09:45:32;;;;;;;10.97;5.30;;;7.50;77.90;;;;;;5103634;28;20041;-86
2021/12/19 09:47:58;;;;;;;10.60;4.80;;;7.40;77.70;;;;;;5113692;28;20016;-86
2021/12/19 09:50:24;;;;;;;10.13;5.13;;;7.40;77.80;;;;;;5105719;28;20162;-86
2021/12/19 09:52:50;;;;;;;;;;;7.40;77.80;;;;;;5104356;28;20440;-88
2021/12/19 09:55:19;;;;;;;10.18;5.70;;;7.40;77.70;;;;;;5111514;28;19915;-84
2021/12/19 09:57:45;;;;;;;14.17;5.23;;;7.50;77.50;;;;;;5103742;28;20035;-85
2021/12/19 10:00:12;;;;;;;9.07;5.43;;;7.40;77.60;;;;;;5110587;28;20114;-83
2021/12/19 10:02:37;;;;;;;10.87;5.40;;;7.40;77.50;;;;;;5100074;28;20031;-87
2021/12/19 10:05:29;;;;;;;;;;;7.40;77.60;;;;;;5113679;28;20032;-84
2021/12/19 10:07:58;;;;;;;8.68;3.83;;;7.40;77.60;;;;;;5099976;28;20352;-84
2021/12/19 10:10:43;;;;;;;11.17;6.10;;;7.40;77.30;;;;;;5105629;28;20087;-83
2021/12/19 10:13:09;;;;;;;8.03;4.70;;;7.40;77.50;;;;;;5105552;28;20080;-83
2021/12/19 10:15:38;;;;;;;;;;;7.40;77.40;;;;;;5101007;28;20012;-84
2021/12/19 10:18:13;;;;;;;9.53;5.13;;;7.40;77.50;;;;;;5110516;28;19907;-84
2021/12/19 10:20:48;;;;;;;11.43;6.00;;;7.50;77.20;;;;;;5100360;28;20024;-83
2021/12/19 10:23:29;;;;;;;7.87;4.63;;;7.50;77.10;;;;;;5111916;28;20048;-83
2021/12/19 10:26:07;;;;;;;7.28;4.13;;;7.50;77.10;;;;;;5101638;28;20026;-84
2021/12/19 10:28:47;;;;;;;14.87;6.20;;;7.50;77.00;;;;;;5103755;28;20043;-85
2021/12/19 10:31:13;;;;;;;9.37;4.27;;;7.50;77.00;;;;;;5102204;28;20089;-84
2021/12/19 10:33:38;;;;;;;;;;;7.50;77.00;;;;;;5101835;28;20028;-83
2021/12/19 10:36:06;;;;;;;10.50;4.37;;;7.60;76.80;;;;;;5096164;28;19970;-83
2021/12/19 10:38:49;;;;;;;8.55;4.88;;;7.60;76.60;;;;;;5092819;28;20024;-83
2021/12/19 10:41:20;;;;;;;12.32;5.68;;;7.60;76.60;;;;;;5093425;28;20075;-83
2021/12/19 10:43:57;;;;;;;13.18;6.53;;;7.60;76.70;;;;;;5100352;28;20028;-82
2021/12/19 10:46:38;;;;;;;10.38;5.72;;;7.60;76.70;;;;;;5103248;28;20101;-83
2021/12/19 10:49:20;;;;;;;16.00;7.17;;;7.70;76.60;;;;;;5114173;28;20019;-83
2021/12/19 10:51:48;;;;;;;13.65;6.65;;;7.70;76.50;;;;;;5090761;28;20020;-84
2021/12/19 10:54:14;;;;;;;7.53;4.67;;;7.70;76.10;;;;;;5097357;28;20361;-83
2021/12/19 10:56:40;;;;;;;;;;;7.70;76.00;;;;;;5113367;28;20157;-82
2021/12/19 10:59:16;;;;;;;11.02;6.55;;;7.80;75.90;;;;;;5104923;28;19914;-82
2021/12/19 11:01:47;;;;;;;6.32;3.78;;;7.80;75.50;;;;;;5102660;28;20024;-83
2021/12/19 11:04:15;;;;;;;8.43;4.67;;;7.80;75.50;;;;;;5101641;28;20101;-83
2021/12/19 11:06:47;;;;;;;6.63;3.75;;;7.80;75.40;;;;;;5101907;28;20156;-84
2021/12/19 11:09:50;;;;;;;7.35;4.43;;;7.80;74.50;;;;;;5093313;28;20012;-84
2021/12/19 11:12:22;;;;;;;9.63;4.38;;;7.80;74.70;;;;;;5085194;28;20028;-83
2021/12/19 11:14:49;;;;;;;7.03;3.55;;;7.80;74.50;;;;;;5106070;28;20032;-83
2021/12/19 11:17:20;;;;;;;;;;;7.90;74.30;;;;;;5113380;28;20059;-84
2021/12/19 11:19:46;;;;;;;6.27;3.20;;;8.00;74.40;;;;;;5105870;28;19908;-83
2021/12/19 11:22:14;;;;;;;6.65;3.30;;;8.00;73.70;;;;;;5098584;28;20058;-84
2021/12/19 11:24:39;;;;;;;7.30;3.72;;;8.10;73.70;;;;;;5097622;28;20024;-83
2021/12/19 11:27:06;;;;;;;;;;;8.00;73.80;;;;;;5101300;28;20362;-83
2021/12/19 11:29:32;;;;;;;5.28;3.28;;;8.00;74.00;;;;;;5097157;28;19914;-84
2021/12/19 11:32:01;;;;;;;5.93;3.20;;;8.00;73.70;;;;;;5107964;28;20050;-83
2021/12/19 11:34:35;;;;;;;6.93;3.95;;;8.00;73.80;;;;;;5096589;28;20110;-83
2021/12/19 11:37:07;;;;;;;9.43;3.70;;;8.10;73.70;;;;;;5096815;28;20023;-83
2021/12/19 11:39:36;;;;;;;6.88;1.77;;;8.10;73.40;;;;;;5106060;28;20031;-88
2021/12/19 11:42:03;;;;;;;8.73;4.65;;;8.10;72.90;;;;;;5103756;28;20031;-88
2021/12/19 11:47:48;;;;;;;6.90;3.85;;;8.00;73.10;;;;;;5101701;28;20063;-89
2021/12/19 11:50:26;;;;;;;6.32;3.38;;;8.10;72.70;;;;;;5096287;28;20038;-88
2021/12/19 11:52:57;;;;;;;7.43;3.17;;;8.00;72.80;;;;;;5103675;28;20103;-88
2021/12/19 11:55:44;;;;;;;9.88;5.03;;;8.10;72.70;;;;;;5108894;28;20057;-87
2021/12/19 11:58:12;;;;;;;6.47;3.10;;;8.00;72.70;;;;;;5118817;28;20031;-87
2021/12/19 12:00:40;;;;;;;8.63;4.32;;;8.00;72.90;;;;;;5114066;28;20429;-87
2021/12/19 12:03:11;;;;;;;4.77;2.60;;;7.90;73.10;;;;;;5114693;28;20040;-87
2021/12/19 12:05:44;;;;;;;3.50;1.58;;;8.00;73.20;;;;;;5117209;28;20101;-88
2021/12/19 12:08:16;;;;;;;3.70;2.10;;;8.00;73.30;;;;;;5107530;28;20019;-88
2021/12/19 12:10:52;;;;;;;4.82;2.67;;;7.90;73.10;;;;;;5099868;28;20020;-84
2021/12/19 12:13:29;;;;;;;6.43;2.22;;;7.80;73.30;;;;;;5109510;28;20484;-84
2021/12/19 12:16:25;;;;;;;4.30;2.28;;;7.80;73.30;;;;;;5108130;28;20404;-85
2021/12/19 12:18:56;;;;;;;9.15;3.50;;;7.80;73.10;;;;;;5100917;28;20127;-84
2021/12/19 12:23:59;;;;;;;6.22;2.30;;;7.60;73.60;;;;;;5101743;28;20100;-84
2021/12/19 12:26:27;;;;;;;8.20;3.93;;;7.60;73.70;;;;;;5102973;28;20395;-83
2021/12/19 12:28:53;;;;;;;8.30;3.97;;;7.60;73.50;;;;;;5103497;28;20026;-85
2021/12/19 12:31:18;;;;;;;;;;;7.50;73.60;;;;;;5109282;28;20523;-84
2021/12/19 12:33:44;;;;;;;7.00;3.77;;;7.50;73.60;;;;;;5101879;28;19954;-83
2021/12/19 12:36:10;;;;;;;;;;;7.50;73.40;;;;;;5114152;28;20079;-83
2021/12/19 12:38:36;;;;;;;5.10;3.47;;;7.50;73.10;;;;;;5107559;28;19915;-84
2021/12/19 12:41:09;;;;;;;8.03;3.07;;;7.50;72.80;;;;;;5100048;28;20020;-84
2021/12/19 12:43:36;;;;;;;5.03;2.73;;;7.50;72.80;;;;;;5103930;28;20023;-83
2021/12/19 12:46:07;;;;;;;4.18;2.15;;;7.50;72.60;;;;;;5105690;28;20047;-84
2021/12/19 12:48:57;;;;;;;10.10;5.93;;;7.50;72.60;;;;;;5101635;28;20525;-84
2021/12/19 12:51:25;;;;;;;7.15;4.00;;;7.50;72.40;;;;;;5107155;28;20028;-83
2021/12/19 12:53:53;;;;;;;4.60;2.05;;;7.50;72.50;;;;;;5112961;28;20024;-85
2021/12/19 12:56:22;;;;;;;7.95;4.45;;;7.50;72.30;;;;;;5112633;28;20020;-84
2021/12/19 12:58:55;;;;;;;10.00;4.70;;;7.50;72.30;;;;;;5114107;28;20130;-84
2021/12/19 13:01:23;;;;;;;7.15;3.58;;;7.50;72.30;;;;;;5104851;28;20039;-84
2021/12/19 13:04:25;;;;;;;14.93;7.60;;;7.50;72.20;;;;;;5102821;28;20527;-83
2021/12/19 13:10:06;;;;;;;10.13;4.93;;;7.40;73.10;;;;;;4993168;28;20021;-84
2021/12/19 13:12:36;;;;;;;;;;;7.40;73.30;;;;;;5033750;28;20088;-84
2021/12/19 13:15:03;;;;;;;30.23;15.43;;;7.40;73.50;;;;;;5059096;28;19967;-84
2021/12/19 13:17:38;;;;;;;30.47;18.30;;;7.40;73.50;;;;;;5097672;28;20396;-84
2021/12/19 13:20:08;;;;;;;11.07;5.93;;;7.40;73.80;;;;;;5102656;28;20016;-83
2021/12/19 13:22:47;;;;;;;20.63;10.20;;;7.40;74.00;;;;;;5100307;28;20023;-83
2021/12/19 13:25:25;;;;;;;15.10;6.87;;;7.40;74.10;;;;;;5099852;28;20035;-83
2021/12/19 13:27:58;;;;;;;9.93;3.95;;;7.40;74.10;;;;;;5102705;28;20032;-84
2021/12/19 13:30:30;;;;;;;8.50;3.78;;;7.40;73.90;;;;;;5104057;28;20039;-84
2021/12/19 13:33:13;;;;;;;15.20;8.13;;;7.40;73.70;;;;;;5105852;28;20081;-83
2021/12/19 13:35:50;;;;;;;20.23;10.77;;;7.40;73.70;;;;;;5104573;28;20031;-84
2021/12/19 13:38:17;;;;;;;;;;;7.40;73.70;;;;;;5106671;28;20109;-83
2021/12/19 13:40:46;;;;;;;18.67;9.73;;;7.50;73.60;;;;;;5104997;28;19908;-85
2021/12/19 13:43:19;;;;;;;15.15;7.57;;;7.50;73.20;;;;;;5098675;28;20361;-84
2021/12/19 13:45:58;;;;;;;10.68;4.32;;;7.50;73.40;;;;;;5107184;28;20101;-83
2021/12/19 13:48:49;;;;;;;14.30;6.60;;;7.40;73.30;;;;;;5105960;28;20110;-85
2021/12/19 13:51:16;;;;;;;13.57;6.10;;;7.40;73.10;;;;;;5088600;28;20062;-84
2021/12/19 13:53:46;;;;;;;17.50;7.93;;;7.40;73.20;;;;;;5102576;28;20481;-83
2021/12/19 13:56:18;;;;;;;10.90;6.27;;;7.30;73.40;;;;;;5107428;28;20118;-83
2021/12/19 13:58:52;;;;;;;12.15;5.55;;;7.30;73.50;;;;;;5096657;28;20050;-83
2021/12/19 14:01:24;;;;;;;13.25;4.88;;;7.30;73.50;;;;;;5103106;28;20044;-84
2021/12/19 14:03:54;;;;;;;8.53;3.70;;;7.30;73.70;;;;;;5097341;28;20026;-85
2021/12/19 14:06:31;;;;;;;11.80;5.47;;;7.30;73.70;;;;;;5109646;28;20020;-85
2021/12/19 14:09:10;;;;;;;14.10;7.50;;;7.30;73.60;;;;;;5103403;28;20024;-84
2021/12/19 14:11:40;;;;;;;9.77;4.13;;;7.20;73.60;;;;;;5105192;28;20502;-85
2021/12/19 14:14:12;;;;;;;5.13;2.93;;;7.20;73.60;;;;;;5105088;28;20028;-87
2021/12/19 14:16:37;;;;;;;12.93;4.97;;;7.20;73.50;;;;;;5105960;28;20024;-83
2021/12/19 14:19:17;;;;;;;;;;;7.20;73.50;;;;;;5102644;28;20089;-83
2021/12/19 14:21:43;;;;;;;3.97;1.90;;;7.10;73.80;;;;;;5105705;28;19907;-84
2021/12/19 14:24:10;;;;;;;;;;;7.10;73.80;;;;;;5108495;28;20039;-84
2021/12/19 14:26:36;;;;;;;6.53;3.40;;;7.00;74.10;;;;;;5107947;28;19965;-85